Time;durP1;ratioP1;P1;durP2;ratioP2;P2;SDS_P1;SDS_P2;PMS_P1;PMS_P2;Temp;Humidity;BMP_temperature;BMP_pressure;BME280_temperature;BME280_humidity;BME280_pressure;Samples;Min_cycle;Max_cycle;Signal;HPM_P1;HPM_P2
2022/09/13 00:00:33;;;;;;;6.80;4.22;;;20.80;99.90;;;;;;5016266;28;20214;-63
2022/09/13 00:02:59;;;;;;;6.53;4.65;;;20.70;99.90;;;;;;5015043;28;20214;-63
2022/09/13 00:05:25;;;;;;;8.57;4.50;;;20.60;99.90;;;;;;5015674;28;20218;-63
2022/09/13 00:07:50;;;;;;;4.93;4.00;;;20.40;99.90;;;;;;5049864;28;20214;-63
2022/09/13 00:10:16;;;;;;;5.55;4.30;;;20.40;99.90;;;;;;5016776;28;20607;-63
2022/09/13 00:12:42;;;;;;;7.45;3.45;;;20.30;99.90;;;;;;5010914;28;20548;-63
2022/09/13 00:15:08;;;;;;;7.20;4.03;;;20.30;99.90;;;;;;5016284;28;20694;-63
2022/09/13 00:17:34;;;;;;;6.63;3.47;;;20.30;99.90;;;;;;5024851;28;20187;-63
2022/09/13 00:20:00;;;;;;;4.72;3.83;;;20.30;99.90;;;;;;5010996;28;20221;-63
2022/09/13 00:22:26;;;;;;;7.10;5.68;;;20.30;99.90;;;;;;5015853;28;20179;-64
2022/09/13 00:24:52;;;;;;;6.65;4.10;;;20.40;99.90;;;;;;5044513;28;20190;-63
2022/09/13 00:27:18;;;;;;;6.90;4.00;;;20.40;99.90;;;;;;5022555;28;20279;-63
2022/09/13 00:29:45;;;;;;;7.10;4.70;;;20.40;99.90;;;;;;5026748;28;20685;-63
2022/09/13 00:32:10;;;;;;;20.35;4.68;;;20.40;99.90;;;;;;5016917;28;20270;-63
2022/09/13 00:34:36;;;;;;;5.10;3.83;;;20.40;99.90;;;;;;5022423;28;20258;-63
2022/09/13 00:37:02;;;;;;;7.85;4.80;;;20.30;99.90;;;;;;5000653;28;20206;-63
2022/09/13 00:39:28;;;;;;;9.63;4.93;;;20.40;99.90;;;;;;5015308;28;20684;-63
2022/09/13 00:41:53;;;;;;;5.25;4.22;;;20.40;99.90;;;;;;5048821;28;20193;-63
2022/09/13 00:44:59;;;;;;;9.95;5.65;;;20.30;99.90;;;;;;5032327;28;20582;-63
2022/09/13 00:47:38;;;;;;;8.02;3.63;;;20.40;99.90;;;;;;5041778;28;20273;-63
2022/09/13 00:50:12;;;;;;;8.82;3.97;;;20.30;99.90;;;;;;5028011;28;20187;-63
2022/09/13 00:52:39;;;;;;;6.53;4.03;;;20.30;99.90;;;;;;5048639;28;20213;-63
2022/09/13 00:55:25;;;;;;;8.98;3.63;;;20.30;99.90;;;;;;5029375;28;20182;-64
2022/09/13 00:57:52;;;;;;;6.35;3.78;;;20.30;99.90;;;;;;5026561;28;20189;-63
2022/09/13 01:00:19;;;;;;;8.18;4.18;;;20.30;99.90;;;;;;5021119;28;20222;-63
2022/09/13 01:03:07;;;;;;;14.68;7.78;;;20.30;99.90;;;;;;5017024;28;20190;-63
2022/09/13 01:05:40;;;;;;;8.57;4.53;;;20.30;99.90;;;;;;5019461;28;20710;-63
2022/09/13 01:08:14;;;;;;;11.13;4.65;;;20.30;99.90;;;;;;5017762;28;20274;-63
2022/09/13 01:10:41;;;;;;;9.52;4.55;;;20.30;99.90;;;;;;5021842;28;20608;-63
2022/09/13 01:13:16;;;;;;;5.13;3.97;;;20.30;99.90;;;;;;5049378;28;20257;-63
2022/09/13 01:15:42;;;;;;;6.05;4.00;;;20.30;99.90;;;;;;5022432;28;20197;-63
2022/09/13 01:18:09;;;;;;;4.72;3.55;;;20.30;99.90;;;;;;5023451;28;20183;-63
2022/09/13 01:21:13;;;;;;;4.47;3.03;;;20.30;99.90;;;;;;5016429;28;20739;-63
2022/09/13 01:23:50;;;;;;;4.15;3.50;;;20.30;99.90;;;;;;5014506;28;20247;-63
2022/09/13 01:26:30;;;;;;;5.50;3.20;;;20.30;99.90;;;;;;5016807;28;20179;-63
2022/09/13 01:29:43;;;;;;;4.72;3.50;;;20.30;99.90;;;;;;5025091;28;20197;-63
2022/09/13 01:32:27;;;;;;;3.92;3.10;;;20.40;99.90;;;;;;5024600;28;20576;-63
2022/09/13 01:34:59;;;;;;;5.07;2.90;;;20.40;99.90;;;;;;5015753;28;20249;-63
2022/09/13 01:38:02;;;;;;;6.35;3.00;;;20.30;99.90;;;;;;5031967;28;20218;-63
2022/09/13 01:40:49;;;;;;;3.70;2.60;;;20.30;99.90;;;;;;5021519;28;20233;-63
2022/09/13 01:43:48;;;;;;;2.63;2.42;;;20.20;99.90;;;;;;5023968;28;20193;-63
2022/09/13 01:46:21;;;;;;;3.13;2.45;;;20.20;99.90;;;;;;5016338;28;20187;-63
2022/09/13 01:48:54;;;;;;;7.35;4.82;;;20.20;99.90;;;;;;5024413;28;20174;-63
2022/09/13 01:51:34;;;;;;;2.70;2.22;;;20.20;99.90;;;;;;5026997;28;20183;-63
2022/09/13 01:54:39;;;;;;;4.47;2.60;;;20.10;99.90;;;;;;5021331;28;20186;-63
2022/09/13 01:57:27;;;;;;;3.97;3.08;;;20.10;99.90;;;;;;5028797;28;20282;-63
2022/09/13 02:00:17;;;;;;;2.35;2.15;;;20.10;99.90;;;;;;5048546;28;20678;-63
2022/09/13 02:03:01;;;;;;;2.67;2.15;;;20.10;99.90;;;;;;5019153;28;20202;-63
2022/09/13 02:05:39;;;;;;;4.95;2.58;;;20.10;99.90;;;;;;5020407;28;20182;-63
2022/09/13 02:08:35;;;;;;;3.03;2.67;;;20.00;99.90;;;;;;5033516;28;20282;-63
2022/09/13 02:11:12;;;;;;;5.32;2.17;;;20.00;99.90;;;;;;5029052;28;20312;-63
2022/09/13 02:13:46;;;;;;;2.67;1.80;;;20.00;99.90;;;;;;5024083;28;20331;-63
2022/09/13 02:16:45;;;;;;;3.45;2.53;;;20.00;99.90;;;;;;5028924;28;20197;-63
2022/09/13 02:19:17;;;;;;;3.60;1.95;;;20.00;99.90;;;;;;5016157;28;20188;-63
2022/09/13 02:21:48;;;;;;;2.45;2.28;;;20.10;99.90;;;;;;5018028;28;20644;-63
2022/09/13 02:24:34;;;;;;;3.03;2.75;;;20.00;99.90;;;;;;5031295;28;20269;-63
2022/09/13 02:27:09;;;;;;;5.65;2.78;;;20.00;99.90;;;;;;5023806;28;20242;-64
2022/09/13 02:29:41;;;;;;;6.90;3.00;;;20.00;99.90;;;;;;5023531;28;20256;-64
2022/09/13 02:32:13;;;;;;;5.95;2.38;;;20.00;99.90;;;;;;5029442;28;20229;-64
2022/09/13 02:34:47;;;;;;;4.55;3.75;;;19.90;99.90;;;;;;5029354;28;20194;-63
2022/09/13 02:37:13;;;;;;;18.70;4.43;;;19.90;99.90;;;;;;5016573;28;20191;-63
2022/09/13 02:39:48;;;;;;;5.05;3.00;;;19.90;99.90;;;;;;5027168;28;20218;-63
2022/09/13 02:42:28;;;;;;;3.10;2.55;;;19.90;99.90;;;;;;5032525;28;20196;-63
2022/09/13 02:44:57;;;;;;;5.70;4.97;;;20.00;99.90;;;;;;5021916;28;20204;-63
2022/09/13 02:47:26;;;;;;;4.82;3.42;;;19.90;99.90;;;;;;5030060;28;20187;-64
2022/09/13 02:50:00;;;;;;;5.35;3.50;;;19.90;99.90;;;;;;5015604;28;20180;-64
2022/09/13 02:52:32;;;;;;;6.05;3.90;;;19.90;99.90;;;;;;5014423;28;20587;-63
2022/09/13 02:55:07;;;;;;;18.35;4.68;;;19.90;99.90;;;;;;5015243;28;20636;-63
2022/09/13 02:57:49;;;;;;;8.70;3.35;;;19.80;99.90;;;;;;5029860;28;20281;-63
2022/09/13 03:00:15;;;;;;;4.60;2.97;;;19.80;99.90;;;;;;5024462;28;20242;-63
2022/09/13 03:02:44;;;;;;;11.88;6.25;;;19.80;99.90;;;;;;5025767;28;20206;-63
2022/09/13 03:05:10;;;;;;;6.57;3.60;;;19.80;99.90;;;;;;5046694;28;20270;-63
2022/09/13 03:07:35;;;;;;;9.60;3.88;;;19.70;99.90;;;;;;5031773;28;20275;-63
2022/09/13 03:10:08;;;;;;;4.63;3.10;;;19.70;99.90;;;;;;5015524;28;20436;-64
2022/09/13 03:12:58;;;;;;;6.65;3.53;;;19.70;99.90;;;;;;5020992;28;20187;-64
2022/09/13 03:15:50;;;;;;;6.43;4.07;;;19.70;99.90;;;;;;5021712;28;20727;-63
2022/09/13 03:18:47;;;;;;;2.97;2.70;;;19.70;99.90;;;;;;5015579;28;20232;-63
2022/09/13 03:21:37;;;;;;;3.50;3.20;;;19.70;99.90;;;;;;5016879;28;20218;-63
2022/09/13 03:24:06;;;;;;;2.83;2.55;;;19.70;99.90;;;;;;5014577;28;20207;-64
2022/09/13 03:26:43;;;;;;;3.72;2.65;;;19.70;99.90;;;;;;5023442;28;20180;-64
2022/09/13 03:29:34;;;;;;;2.47;2.28;;;19.70;99.90;;;;;;5026443;28;20605;-64
2022/09/13 03:32:14;;;;;;;2.80;2.60;;;19.70;99.90;;;;;;5020286;28;20202;-63
2022/09/13 03:34:52;;;;;;;6.32;4.60;;;19.80;99.90;;;;;;5030219;28;20187;-63
2022/09/13 03:37:24;;;;;;;5.45;3.20;;;19.80;99.90;;;;;;5028380;28;20228;-63
2022/09/13 03:40:08;;;;;;;2.83;2.60;;;19.80;99.90;;;;;;5025753;28;20650;-63
2022/09/13 03:42:53;;;;;;;3.25;2.17;;;19.80;99.90;;;;;;5014888;28;20257;-63
2022/09/13 03:45:23;;;;;;;3.70;2.60;;;19.80;99.90;;;;;;5013503;28;20207;-63
2022/09/13 03:47:50;;;;;;;4.00;2.90;;;19.80;99.90;;;;;;5029629;28;20193;-63
2022/09/13 03:50:20;;;;;;;3.10;2.80;;;19.80;99.90;;;;;;5013290;28;20187;-63
2022/09/13 03:52:49;;;;;;;6.65;3.13;;;19.80;99.90;;;;;;5012916;28;20187;-63
2022/09/13 03:55:18;;;;;;;3.28;2.58;;;19.80;99.90;;;;;;5010345;28;20183;-63
2022/09/13 03:57:45;;;;;;;3.60;2.60;;;19.80;99.90;;;;;;5016906;28;20236;-64
2022/09/13 04:00:13;;;;;;;3.40;3.10;;;19.80;99.90;;;;;;5020795;28;20211;-63
2022/09/13 04:02:39;;;;;;;4.15;2.88;;;19.80;99.90;;;;;;5022212;28;20191;-63
2022/09/13 04:05:05;;;;;;;4.07;2.75;;;19.80;99.90;;;;;;5019264;28;20198;-63
2022/09/13 04:07:32;;;;;;;4.32;2.60;;;19.80;99.90;;;;;;5028428;28;20189;-63
2022/09/13 04:09:58;;;;;;;3.22;2.58;;;19.80;99.90;;;;;;5024275;28;20282;-63
2022/09/13 04:12:24;;;;;;;2.83;2.15;;;19.80;99.90;;;;;;5023009;28;20222;-63
2022/09/13 04:14:49;;;;;;;2.67;2.30;;;19.80;99.90;;;;;;5029611;28;20226;-64
2022/09/13 04:17:15;;;;;;;2.80;2.50;;;19.80;99.90;;;;;;5013078;28;20210;-63
2022/09/13 04:19:43;;;;;;;5.32;2.97;;;19.80;99.90;;;;;;5017994;28;20210;-64
2022/09/13 04:22:09;;;;;;;2.88;2.67;;;19.80;99.90;;;;;;5020110;28;20221;-63
2022/09/13 04:24:35;;;;;;;2.70;2.50;;;19.80;99.90;;;;;;5025656;28;20210;-63
2022/09/13 04:27:01;;;;;;;3.15;2.30;;;19.80;99.90;;;;;;5012899;28;20195;-63
2022/09/13 04:29:27;;;;;;;2.65;2.45;;;19.80;99.90;;;;;;5016730;28;20278;-63
2022/09/13 04:31:54;;;;;;;2.40;2.20;;;19.80;99.90;;;;;;5015009;28;20266;-63
2022/09/13 04:34:21;;;;;;;3.03;2.53;;;19.80;99.90;;;;;;5024014;28;20194;-64
2022/09/13 04:36:48;;;;;;;3.08;2.78;;;19.80;99.90;;;;;;5014452;28;20195;-64
2022/09/13 04:39:14;;;;;;;3.90;2.50;;;19.80;99.90;;;;;;5013636;28;20195;-63
2022/09/13 04:41:43;;;;;;;3.92;2.85;;;19.80;99.90;;;;;;5015687;28;20535;-63
2022/09/13 04:44:09;;;;;;;2.72;2.50;;;19.80;99.90;;;;;;5030105;28;20187;-63
2022/09/13 04:46:35;;;;;;;4.97;2.70;;;19.80;99.90;;;;;;5016497;28;20211;-64
2022/09/13 04:49:01;;;;;;;2.95;2.65;;;19.70;99.90;;;;;;5015459;28;20226;-63
2022/09/13 04:51:26;;;;;;;5.13;2.80;;;19.70;99.90;;;;;;5016667;28;20536;-63
2022/09/13 04:53:54;;;;;;;3.30;3.00;;;19.70;99.90;;;;;;5017354;28;20265;-63
2022/09/13 04:56:21;;;;;;;3.83;2.88;;;19.70;99.90;;;;;;5022152;28;20202;-64
2022/09/13 04:58:49;;;;;;;3.60;2.63;;;19.70;99.90;;;;;;5016641;28;20171;-63
2022/09/13 05:01:16;;;;;;;6.70;3.85;;;19.80;99.90;;;;;;5015176;28;20214;-64
2022/09/13 05:03:41;;;;;;;4.25;2.97;;;19.80;99.90;;;;;;5028146;28;20198;-64
2022/09/13 05:06:10;;;;;;;3.72;3.35;;;19.80;99.90;;;;;;5013030;28;20187;-64
2022/09/13 05:08:36;;;;;;;3.65;2.60;;;19.80;99.90;;;;;;5014003;28;20191;-64
2022/09/13 05:11:03;;;;;;;2.83;2.33;;;19.80;99.90;;;;;;5018353;28;20549;-64
2022/09/13 05:13:29;;;;;;;3.78;3.08;;;19.80;99.90;;;;;;5028753;28;20187;-63
2022/09/13 05:16:00;;;;;;;3.80;2.22;;;19.80;99.90;;;;;;5058801;28;20261;-63
2022/09/13 05:18:34;;;;;;;2.55;2.35;;;19.80;99.90;;;;;;5028282;28;20606;-64
2022/09/13 05:21:01;;;;;;;3.60;2.40;;;19.80;99.90;;;;;;5032236;28;20579;-63
2022/09/13 05:23:29;;;;;;;10.95;2.63;;;19.80;99.90;;;;;;5020174;28;20629;-63
2022/09/13 05:25:57;;;;;;;17.27;4.30;;;19.80;99.90;;;;;;5031047;28;20179;-63
2022/09/13 05:28:23;;;;;;;6.28;2.97;;;19.80;99.90;;;;;;5022015;28;20213;-63
2022/09/13 05:31:04;;;;;;;5.55;2.97;;;19.70;99.90;;;;;;5028441;28;20191;-65
2022/09/13 05:33:35;;;;;;;9.38;2.95;;;19.70;99.90;;;;;;5016013;28;20186;-65
2022/09/13 05:36:02;;;;;;;4.53;4.13;;;19.80;99.90;;;;;;5030383;28;20193;-65
2022/09/13 05:38:27;;;;;;;5.70;2.45;;;19.80;99.90;;;;;;5020741;28;20188;-65
2022/09/13 05:40:55;;;;;;;2.92;2.33;;;19.80;99.90;;;;;;5026350;28;20698;-65
2022/09/13 05:43:22;;;;;;;3.47;3.17;;;19.80;99.90;;;;;;5025924;28;20175;-65
2022/09/13 05:45:47;;;;;;;5.43;3.03;;;19.90;99.90;;;;;;5033180;28;20215;-65
2022/09/13 05:48:13;;;;;;;3.05;2.70;;;19.90;99.90;;;;;;5019211;28;20610;-64
2022/09/13 05:50:39;;;;;;;3.33;2.97;;;19.90;99.90;;;;;;5016274;28;20200;-64
2022/09/13 05:53:05;;;;;;;4.38;2.30;;;19.90;99.90;;;;;;5024122;28;20262;-64
2022/09/13 05:55:32;;;;;;;2.70;2.50;;;19.90;99.90;;;;;;5030742;28;20191;-64
2022/09/13 05:57:59;;;;;;;2.58;2.38;;;19.90;99.90;;;;;;5015685;28;20187;-64
2022/09/13 06:00:25;;;;;;;3.97;2.10;;;19.90;99.90;;;;;;5017857;28;20210;-64
2022/09/13 06:02:51;;;;;;;3.08;2.13;;;20.00;99.90;;;;;;5016521;28;20191;-64
2022/09/13 06:05:17;;;;;;;3.33;3.03;;;20.00;99.90;;;;;;5007132;28;20645;-64
2022/09/13 06:07:42;;;;;;;6.10;2.33;;;20.00;99.90;;;;;;5026786;28;20247;-64
2022/09/13 06:10:09;;;;;;;2.88;2.38;;;20.00;99.90;;;;;;5025925;28;20203;-65
2022/09/13 06:12:35;;;;;;;2.63;2.42;;;20.00;99.90;;;;;;5023657;28;20207;-65
2022/09/13 06:15:01;;;;;;;9.77;2.72;;;20.00;99.90;;;;;;5023362;28;20187;-66
2022/09/13 06:17:26;;;;;;;2.55;2.10;;;20.10;99.90;;;;;;5026657;28;20189;-65
2022/09/13 06:19:52;;;;;;;4.65;3.17;;;20.10;99.90;;;;;;5025953;28;20218;-65
2022/09/13 06:22:18;;;;;;;3.95;2.42;;;20.10;99.90;;;;;;5017645;28;20269;-65
2022/09/13 06:24:43;;;;;;;4.55;2.45;;;20.10;99.90;;;;;;5018193;28;20321;-65
2022/09/13 06:27:09;;;;;;;4.28;2.83;;;20.10;99.90;;;;;;5021920;28;20666;-64
2022/09/13 06:29:35;;;;;;;4.68;2.70;;;20.20;99.90;;;;;;5027895;28;20197;-64
2022/09/13 06:32:02;;;;;;;6.40;2.80;;;20.20;99.90;;;;;;5031994;28;20194;-65
2022/09/13 06:34:28;;;;;;;3.22;2.25;;;20.20;99.90;;;;;;5032753;28;20187;-65
2022/09/13 06:36:54;;;;;;;4.78;4.35;;;20.20;99.90;;;;;;5025804;28;20194;-64
2022/09/13 06:39:19;;;;;;;3.75;3.10;;;20.30;99.90;;;;;;5057860;28;20191;-65
2022/09/13 06:41:45;;;;;;;8.73;3.45;;;20.40;99.90;;;;;;5015520;28;20659;-65
2022/09/13 06:44:11;;;;;;;4.05;3.10;;;20.40;99.90;;;;;;5040847;28;20755;-66
2022/09/13 06:46:37;;;;;;;4.72;3.15;;;20.50;99.90;;;;;;5030015;28;20183;-62
2022/09/13 06:49:05;;;;;;;3.00;2.55;;;20.60;99.90;;;;;;5030767;28;20186;-65
2022/09/13 06:51:32;;;;;;;3.45;2.25;;;20.70;99.90;;;;;;5019195;28;20182;-64
2022/09/13 06:53:58;;;;;;;5.35;3.08;;;20.90;99.90;;;;;;5013055;28;20183;-64
2022/09/13 06:56:31;;;;;;;6.38;2.40;;;21.00;99.90;;;;;;5024063;28;20184;-63
2022/09/13 06:58:59;;;;;;;2.55;2.35;;;21.10;99.90;;;;;;5012548;28;20207;-64
2022/09/13 07:01:30;;;;;;;3.42;2.63;;;21.30;99.90;;;;;;5025640;28;20719;-64
2022/09/13 07:04:01;;;;;;;3.50;2.70;;;21.40;99.90;;;;;;5021407;28;20174;-63
2022/09/13 07:06:29;;;;;;;3.63;2.65;;;21.60;99.90;;;;;;5027155;28;20179;-64
2022/09/13 07:08:57;;;;;;;2.80;2.33;;;21.80;99.90;;;;;;5020919;28;20639;-64
2022/09/13 07:11:24;;;;;;;5.63;2.28;;;22.00;99.90;;;;;;5016703;28;20194;-63
2022/09/13 07:13:52;;;;;;;6.40;3.13;;;22.30;99.90;;;;;;5019155;28;20532;-63
2022/09/13 07:16:20;;;;;;;4.95;2.40;;;22.50;99.90;;;;;;5023367;28;20322;-63
2022/09/13 07:18:53;;;;;;;4.88;2.90;;;22.80;99.90;;;;;;5029008;28;20183;-64
2022/09/13 07:21:21;;;;;;;3.50;2.83;;;23.00;99.90;;;;;;5029356;28;20203;-64
2022/09/13 07:23:46;;;;;;;16.48;4.10;;;23.10;99.90;;;;;;5018147;28;20200;-62
2022/09/13 07:26:12;;;;;;;8.95;2.78;;;23.40;99.90;;;;;;5026583;28;20188;-63
2022/09/13 07:28:40;;;;;;;6.68;3.75;;;23.50;99.90;;;;;;5015465;28;20184;-63
2022/09/13 07:31:17;;;;;;;9.23;3.95;;;23.60;99.90;;;;;;5024559;28;20273;-63
2022/09/13 07:33:44;;;;;;;11.65;4.50;;;23.60;99.90;;;;;;5030215;28;20546;-63
2022/09/13 07:36:11;;;;;;;7.53;4.65;;;23.70;99.90;;;;;;5022851;28;20607;-63
2022/09/13 07:38:40;;;;;;;8.23;3.17;;;23.80;99.90;;;;;;5025959;28;20187;-62
2022/09/13 07:41:10;;;;;;;10.48;4.07;;;23.80;99.90;;;;;;5023169;28;20598;-61
2022/09/13 07:43:36;;;;;;;4.25;3.42;;;23.80;99.90;;;;;;5029479;28;20178;-62
2022/09/13 07:46:05;;;;;;;9.30;3.97;;;24.10;99.90;;;;;;5030806;28;20336;-63
2022/09/13 07:48:34;;;;;;;8.48;3.28;;;24.80;99.90;;;;;;5025375;28;20189;-63
2022/09/13 07:51:28;;;;;;;7.65;3.53;;;25.50;99.90;;;;;;5031255;28;20225;-63
2022/09/13 07:53:55;;;;;;;9.02;3.65;;;25.70;99.90;;;;;;5017182;28;20654;-63
2022/09/13 07:56:30;;;;;;;7.22;3.15;;;25.80;99.90;;;;;;5011481;28;20182;-63
2022/09/13 07:58:59;;;;;;;15.07;3.70;;;25.70;99.90;;;;;;5018020;28;20185;-63
2022/09/13 08:01:32;;;;;;;9.82;4.22;;;26.00;99.90;;;;;;5021173;28;20264;-63
2022/09/13 08:04:00;;;;;;;16.58;4.30;;;26.70;99.90;;;;;;5042440;28;20209;-64
2022/09/13 08:06:28;;;;;;;4.95;3.85;;;27.80;99.90;;;;;;5031398;28;20189;-66
2022/09/13 08:08:55;;;;;;;4.10;3.67;;;29.20;99.90;;;;;;5019572;28;20182;-66
2022/09/13 08:11:30;;;;;;;7.63;3.95;;;29.60;99.90;;;;;;5015907;28;20190;-64
2022/09/13 08:13:56;;;;;;;6.90;3.67;;;29.80;99.90;;;;;;5019631;28;20642;-64
2022/09/13 08:16:23;;;;;;;13.00;5.25;;;29.80;99.90;;;;;;5018800;28;20193;-63
2022/09/13 08:18:51;;;;;;;6.15;4.55;;;29.20;99.90;;;;;;5025728;28;20197;-64
2022/09/13 08:21:17;;;;;;;7.57;3.85;;;28.80;99.90;;;;;;5021995;28;20210;-63
2022/09/13 08:23:44;;;;;;;10.52;5.68;;;28.90;99.90;;;;;;5026128;28;20186;-63
2022/09/13 08:26:10;;;;;;;17.00;4.97;;;28.80;99.90;;;;;;5014922;28;20636;-67
2022/09/13 08:28:39;;;;;;;10.48;3.70;;;28.70;99.90;;;;;;5018217;28;20174;-67
2022/09/13 08:31:11;;;;;;;20.10;5.32;;;28.40;99.90;;;;;;5043596;28;20201;-68
2022/09/13 08:33:37;;;;;;;8.45;4.32;;;28.30;99.90;;;;;;5027753;28;20186;-67
2022/09/13 08:36:04;;;;;;;4.25;3.42;;;28.30;99.90;;;;;;5025543;28;20244;-67
2022/09/13 08:38:31;;;;;;;11.05;3.92;;;28.00;99.90;;;;;;5019854;28;20179;-67
2022/09/13 08:41:04;;;;;;;6.65;4.57;;;27.70;99.90;;;;;;5017558;28;20218;-67
2022/09/13 08:43:55;;;;;;;7.68;4.35;;;27.40;99.90;;;;;;5020789;28;20175;-68
2022/09/13 08:46:41;;;;;;;4.28;3.58;;;27.00;99.90;;;;;;5024922;28;20193;-69
2022/09/13 08:49:19;;;;;;;10.40;5.13;;;26.70;99.90;;;;;;5021301;28;20293;-67
2022/09/13 08:52:01;;;;;;;8.85;4.68;;;26.50;99.90;;;;;;5022669;28;20639;-67
2022/09/13 08:54:27;;;;;;;6.40;3.78;;;26.10;99.90;;;;;;5031398;28;20182;-66
2022/09/13 08:57:03;;;;;;;9.90;4.85;;;26.00;99.90;;;;;;5029585;28;20197;-67
2022/09/13 08:59:40;;;;;;;5.70;4.28;;;26.00;99.90;;;;;;5015063;28;20771;-67
2022/09/13 09:02:25;;;;;;;10.13;5.97;;;25.70;99.90;;;;;;5031754;28;20261;-66
2022/09/13 09:05:21;;;;;;;5.18;4.30;;;25.60;99.90;;;;;;5034241;28;20264;-67
2022/09/13 09:07:53;;;;;;;5.70;4.85;;;25.50;99.90;;;;;;5031190;28;20273;-66
2022/09/13 09:10:32;;;;;;;6.03;4.95;;;25.70;99.90;;;;;;5018973;28;20296;-67
2022/09/13 09:13:22;;;;;;;6.53;4.05;;;25.70;99.90;;;;;;5017320;28;20222;-67
2022/09/13 09:15:53;;;;;;;7.32;4.75;;;26.00;99.90;;;;;;5017629;28;20200;-67
2022/09/13 09:18:28;;;;;;;8.18;4.32;;;26.10;99.90;;;;;;5017596;28;20171;-68
2022/09/13 09:20:56;;;;;;;5.63;4.97;;;25.80;99.90;;;;;;5019179;28;20194;-67
2022/09/13 09:23:32;;;;;;;9.43;5.47;;;25.70;99.90;;;;;;5033918;28;20265;-67
2022/09/13 09:26:30;;;;;;;7.65;4.28;;;25.20;99.90;;;;;;5057477;28;20209;-67
2022/09/13 09:29:24;;;;;;;4.57;3.65;;;24.80;99.90;;;;;;5025053;28;20655;-67
2022/09/13 09:32:17;;;;;;;5.22;4.35;;;25.10;99.90;;;;;;5021748;28;20198;-68
2022/09/13 09:35:37;;;;;;;5.43;4.88;;;25.50;99.90;;;;;;5023686;28;20263;-66
2022/09/13 09:38:03;;;;;;;4.38;3.80;;;25.30;99.90;;;;;;5016310;28;20198;-67
2022/09/13 09:40:29;;;;;;;6.53;5.03;;;25.30;99.90;;;;;;5024005;28;20585;-66
2022/09/13 09:42:55;;;;;;;7.15;4.38;;;25.50;99.90;;;;;;5033018;28;20198;-66
2022/09/13 09:45:33;;;;;;;13.25;4.97;;;25.30;99.90;;;;;;5022159;28;20194;-66
2022/09/13 09:48:04;;;;;;;5.20;3.95;;;25.10;99.90;;;;;;5017194;28;20183;-68
2022/09/13 09:50:37;;;;;;;6.55;4.47;;;25.00;99.90;;;;;;5027802;28;20175;-67
2022/09/13 09:53:03;;;;;;;10.07;4.97;;;25.00;99.90;;;;;;5025094;28;20187;-67
2022/09/13 09:55:49;;;;;;;5.50;4.47;;;24.70;99.90;;;;;;5018753;28;20540;-68
2022/09/13 09:58:15;;;;;;;6.68;4.93;;;24.60;99.90;;;;;;5024781;28;20190;-68
2022/09/13 10:00:56;;;;;;;7.05;4.82;;;24.80;99.90;;;;;;5019893;28;20204;-68
2022/09/13 10:03:26;;;;;;;5.15;4.28;;;25.00;99.90;;;;;;5023948;28;20176;-69
2022/09/13 10:06:07;;;;;;;7.32;4.05;;;25.00;99.90;;;;;;5028082;28;20187;-68
2022/09/13 10:08:36;;;;;;;6.88;4.75;;;25.10;99.90;;;;;;5022954;28;20182;-68
2022/09/13 10:11:03;;;;;;;6.72;5.18;;;25.20;99.90;;;;;;5014907;28;20191;-68
2022/09/13 10:13:29;;;;;;;6.55;4.45;;;25.30;99.90;;;;;;5029893;28;20195;-68
2022/09/13 10:15:59;;;;;;;8.63;4.30;;;25.30;99.90;;;;;;5023932;28;20181;-69
2022/09/13 10:18:32;;;;;;;7.30;4.13;;;25.60;99.90;;;;;;5024792;28;20588;-65
2022/09/13 10:21:04;;;;;;;9.13;4.80;;;25.70;99.90;;;;;;5014820;28;20250;-70
2022/09/13 10:23:34;;;;;;;5.70;4.47;;;25.50;99.90;;;;;;5022038;28;20205;-70
2022/09/13 10:26:08;;;;;;;7.40;3.92;;;25.50;99.90;;;;;;5017661;28;20179;-70
2022/09/13 10:28:49;;;;;;;5.25;4.18;;;25.10;99.90;;;;;;5022434;28;20645;-66
2022/09/13 10:31:16;;;;;;;5.85;3.58;;;24.90;99.90;;;;;;5027628;28;20214;-67
2022/09/13 10:34:23;;;;;;;4.40;3.97;;;24.90;99.90;;;;;;5032620;28;20214;-65
2022/09/13 10:36:54;;;;;;;5.20;3.85;;;25.00;99.90;;;;;;5025870;28;20306;-65
2022/09/13 10:39:22;;;;;;;4.05;3.63;;;24.60;99.90;;;;;;5022503;28;20183;-65
2022/09/13 10:41:53;;;;;;;3.60;3.30;;;24.70;99.90;;;;;;5019247;28;20179;-65
2022/09/13 10:44:45;;;;;;;5.07;3.50;;;24.80;99.90;;;;;;5031686;28;20195;-64
2022/09/13 10:47:30;;;;;;;5.30;3.80;;;24.80;99.90;;;;;;5014685;28;20564;-64
2022/09/13 10:50:12;;;;;;;6.25;4.10;;;25.10;99.90;;;;;;5015872;28;20195;-64
2022/09/13 10:52:43;;;;;;;5.13;3.63;;;25.50;99.90;;;;;;5022492;28;20675;-66
2022/09/13 10:55:18;;;;;;;4.25;2.95;;;25.80;99.90;;;;;;5015300;28;20183;-67
2022/09/13 10:57:49;;;;;;;5.55;4.25;;;26.10;99.90;;;;;;5023635;28;20193;-66
2022/09/13 11:00:29;;;;;;;5.90;3.92;;;26.20;99.90;;;;;;5018613;28;20222;-65
2022/09/13 11:03:05;;;;;;;13.90;4.50;;;26.40;99.90;;;;;;5025753;28;20640;-66
2022/09/13 11:05:54;;;;;;;5.75;4.45;;;26.50;99.90;;;;;;5014766;28;20683;-66
2022/09/13 11:08:31;;;;;;;6.47;3.45;;;26.80;99.90;;;;;;5021310;28;20197;-66
2022/09/13 11:11:24;;;;;;;4.70;4.18;;;26.80;99.90;;;;;;5021783;28;20174;-66
2022/09/13 11:14:08;;;;;;;7.05;4.10;;;26.80;99.90;;;;;;5013102;28;20256;-65
2022/09/13 11:16:41;;;;;;;4.78;3.53;;;26.70;99.90;;;;;;5031542;28;20277;-66
2022/09/13 11:19:31;;;;;;;4.50;3.45;;;26.70;99.90;;;;;;5021768;28;20191;-66
2022/09/13 11:22:19;;;;;;;4.72;4.20;;;27.00;99.90;;;;;;5028646;28;20237;-66
2022/09/13 11:24:57;;;;;;;3.72;3.42;;;27.20;99.90;;;;;;5050035;28;20185;-63
2022/09/13 11:27:43;;;;;;;3.92;3.08;;;27.40;99.90;;;;;;5020827;28;20500;-63
2022/09/13 11:30:18;;;;;;;5.13;2.80;;;26.70;99.90;;;;;;5018704;28;20190;-64
2022/09/13 11:33:13;;;;;;;5.22;3.75;;;26.60;99.90;;;;;;5026877;28;20194;-63
2022/09/13 11:35:55;;;;;;;4.38;3.35;;;26.50;99.90;;;;;;5033408;28;20780;-62
2022/09/13 11:38:38;;;;;;;4.05;3.70;;;26.40;99.90;;;;;;5033105;28;20654;-62
2022/09/13 11:41:11;;;;;;;5.97;3.25;;;26.60;99.90;;;;;;5035177;28;20199;-63
2022/09/13 11:43:56;;;;;;;4.68;2.83;;;26.80;99.90;;;;;;5031740;28;20185;-62
2022/09/13 11:46:51;;;;;;;4.72;3.33;;;27.00;99.90;;;;;;5019870;28;20194;-62
2022/09/13 11:49:41;;;;;;;3.92;3.20;;;26.70;99.90;;;;;;5028091;28;20201;-62
2022/09/13 11:52:25;;;;;;;6.93;3.78;;;26.40;99.90;;;;;;5023499;28;20181;-62
2022/09/13 11:55:18;;;;;;;3.88;3.47;;;26.80;99.90;;;;;;5020088;28;20264;-63
2022/09/13 11:57:51;;;;;;;5.53;3.65;;;27.10;99.90;;;;;;5023619;28;20182;-62
2022/09/13 12:00:29;;;;;;;3.63;3.25;;;26.80;99.90;;;;;;5022850;28;20302;-62
2022/09/13 12:03:09;;;;;;;5.05;3.83;;;26.80;99.90;;;;;;5027409;28;20214;-63
2022/09/13 12:05:48;;;;;;;4.10;3.70;;;26.60;99.90;;;;;;5022588;28;20182;-61
2022/09/13 12:08:41;;;;;;;5.82;3.97;;;26.70;99.90;;;;;;5018001;28;20186;-62
2022/09/13 12:11:22;;;;;;;5.55;3.65;;;26.90;99.90;;;;;;5011473;28;20213;-63
2022/09/13 12:13:49;;;;;;;5.28;3.50;;;27.00;99.90;;;;;;5022803;28;20189;-62
2022/09/13 12:16:25;;;;;;;4.95;3.30;;;27.10;99.90;;;;;;5018571;28;20186;-62
2022/09/13 12:18:56;;;;;;;4.05;3.30;;;27.30;99.90;;;;;;5017446;28;20191;-62
2022/09/13 12:21:33;;;;;;;4.60;3.90;;;27.50;99.90;;;;;;5023678;28;20202;-62
2022/09/13 12:23:59;;;;;;;3.47;2.83;;;27.60;99.90;;;;;;5026280;28;20182;-62
2022/09/13 12:26:28;;;;;;;6.65;3.90;;;27.60;99.90;;;;;;5030422;28;20188;-63
2022/09/13 12:29:06;;;;;;;4.80;3.53;;;27.50;99.90;;;;;;5013132;28;20190;-62
2022/09/13 12:31:32;;;;;;;4.15;3.30;;;27.50;99.90;;;;;;5028188;28;20182;-62
2022/09/13 12:33:59;;;;;;;2.55;2.35;;;27.40;99.90;;;;;;5023233;28;20189;-62
2022/09/13 12:36:49;;;;;;;7.70;3.92;;;27.20;99.90;;;;;;5014296;28;20218;-62
2022/09/13 12:39:58;;;;;;;4.65;3.20;;;27.30;99.90;;;;;;5012336;28;20193;-62
2022/09/13 12:42:39;;;;;;;6.78;3.30;;;27.10;99.90;;;;;;5012574;28;20560;-63
2022/09/13 12:45:43;;;;;;;5.65;3.67;;;27.10;99.90;;;;;;5012572;28;20171;-62
2022/09/13 12:48:16;;;;;;;5.45;3.47;;;26.70;99.90;;;;;;5014010;28;20202;-62
2022/09/13 12:50:50;;;;;;;4.30;3.70;;;26.40;99.90;;;;;;5016070;28;20194;-62
2022/09/13 12:53:29;;;;;;;5.18;3.60;;;26.50;99.90;;;;;;5013032;28;20200;-63
2022/09/13 12:56:01;;;;;;;3.85;2.80;;;26.70;99.90;;;;;;5024146;28;20182;-62
2022/09/13 12:58:36;;;;;;;3.88;3.00;;;26.80;99.90;;;;;;5022083;28;20234;-63
2022/09/13 13:01:32;;;;;;;3.45;3.15;;;26.60;99.90;;;;;;5017343;28;20595;-62
2022/09/13 13:04:00;;;;;;;4.55;3.35;;;26.70;99.90;;;;;;5027961;28;20201;-62
2022/09/13 13:06:26;;;;;;;4.15;3.20;;;26.60;99.90;;;;;;5025430;28;20194;-62
2022/09/13 13:08:55;;;;;;;4.60;3.47;;;26.30;99.90;;;;;;5012093;28;20183;-62
2022/09/13 13:11:25;;;;;;;10.27;6.15;;;26.10;99.90;;;;;;5015873;28;20186;-62
2022/09/13 13:14:08;;;;;;;4.95;4.47;;;25.90;99.90;;;;;;5023471;28;20197;-62
2022/09/13 13:16:39;;;;;;;4.78;3.50;;;25.50;99.90;;;;;;5013993;28;20182;-62
2022/09/13 13:19:28;;;;;;;4.72;4.13;;;25.40;99.90;;;;;;5012456;28;20191;-62